Time;durP1;ratioP1;P1;durP2;ratioP2;P2;SDS_P1;SDS_P2;PMS_P1;PMS_P2;Temp;Humidity;BMP_temperature;BMP_pressure;BME280_temperature;BME280_humidity;BME280_pressure;Samples;Min_cycle;Max_cycle;Signal;HPM_P1;HPM_P2
2024/01/12 00:03:02;;;;;;;15.45;9.95;;;;;;;-1.63;71.47;100524.56;7227145;40;20246;31
2024/01/12 00:08:34;;;;;;;14.50;9.70;;;;;;;-1.67;71.42;100533.50;7029900;40;21303;31
2024/01/12 00:13:54;;;;;;;14.47;9.43;;;;;;;-1.70;71.26;100541.53;7168012;40;20368;31
2024/01/12 00:19:30;;;;;;;17.73;9.70;;;;;;;-1.68;70.88;100549.41;7252266;40;20261;31
2024/01/12 00:25:06;;;;;;;15.15;9.05;;;;;;;-1.68;71.72;100547.62;7317282;39;20256;31
2024/01/12 00:30:26;;;;;;;12.95;8.05;;;;;;;-1.66;73.96;100544.91;7232175;40;20269;31
2024/01/12 00:35:46;;;;;;;12.57;7.77;;;;;;;-1.65;73.73;100552.81;7216759;40;21767;31
2024/01/12 00:41:23;;;;;;;16.90;9.30;;;;;;;-1.64;72.93;100554.53;7192758;40;20243;31
2024/01/12 00:46:58;;;;;;;15.33;8.40;;;;;;;-1.64;74.21;100556.31;7228979;40;20285;31
2024/01/12 00:57:38;;;;;;;15.57;9.20;;;;;;;-1.57;73.89;100560.44;7325543;39;20977;31
2024/01/12 01:03:13;;;;;;;15.50;8.40;;;;;;;-1.58;74.43;100558.75;7266359;40;20257;31
2024/01/12 01:08:48;;;;;;;13.35;7.80;;;;;;;-1.60;74.19;100565.84;7240366;40;20273;31
2024/01/12 01:14:18;;;;;;;13.00;7.70;;;;;;;-1.60;74.61;100560.56;7164946;40;21587;31
2024/01/12 01:19:53;;;;;;;14.60;8.50;;;;;;;-1.55;74.12;100569.19;7178260;40;20228;31
2024/01/12 01:25:28;;;;;;;15.20;8.75;;;;;;;-1.53;73.71;100572.63;7212649;40;20383;31
2024/01/12 01:31:04;;;;;;;14.37;8.40;;;;;;;-1.53;74.47;100584.06;7206939;40;21568;31
2024/01/12 01:36:25;;;;;;;14.93;9.03;;;;;;;-1.52;73.55;100591.06;7196373;40;20360;31
2024/01/12 01:41:45;;;;;;;9.13;6.23;;;;;;;-1.53;75.18;100599.91;7218795;40;20246;31
2024/01/12 01:47:21;;;;;;;11.77;6.17;;;;;;;-1.49;78.00;100600.66;7220387;40;20256;31
2024/01/12 01:58:01;;;;;;;8.60;5.45;;;;;;;-1.37;80.40;100594.94;7253793;40;20276;31
2024/01/12 02:03:37;;;;;;;7.50;5.57;;;;;;;-1.31;81.54;100592.03;7232286;40;20243;31
2024/01/12 02:09:13;;;;;;;10.70;6.00;;;;;;;-1.25;80.65;100588.31;7195132;40;20243;31
2024/01/12 02:14:48;;;;;;;10.95;6.45;;;;;;;-1.23;80.77;100592.66;7239016;40;20377;31
2024/01/12 02:20:25;;;;;;;9.40;6.73;;;;;;;-1.14;80.27;100599.37;7154911;40;20484;31
2024/01/12 02:31:06;;;;;;;7.32;4.47;;;;;;;-1.02;84.26;100596.25;7188249;40;20724;31
2024/01/12 02:36:43;;;;;;;7.47;4.85;;;;;;;-0.89;83.63;100593.97;7215336;40;20261;31
2024/01/12 02:42:04;;;;;;;6.10;4.30;;;;;;;-0.81;84.32;100591.88;7181050;40;20247;31
2024/01/12 02:47:40;;;;;;;7.90;4.93;;;;;;;-0.75;85.92;100589.00;7198137;40;20247;31
2024/01/12 02:53:00;;;;;;;8.73;5.20;;;;;;;-0.68;85.75;100579.87;7167567;40;20282;31
2024/01/12 02:58:20;;;;;;;6.87;5.10;;;;;;;-0.64;85.23;100563.81;7203415;40;20246;31
2024/01/12 03:03:57;;;;;;;8.03;5.10;;;;;;;-0.59;85.53;100568.91;7236603;40;20264;31
2024/01/12 03:09:18;;;;;;;7.95;4.75;;;;;;;-0.54;86.06;100561.66;7258066;39;20257;31
2024/01/12 03:14:47;;;;;;;6.06;4.72;;;;;;;-0.55;85.94;100557.28;7250991;40;21339;31
2024/01/12 03:20:25;;;;;;;6.93;5.13;;;;;;;-0.51;85.97;100556.22;7196204;40;20246;31
2024/01/12 03:26:01;;;;;;;7.50;5.47;;;;;;;-0.48;85.10;100548.13;7192129;40;20242;31
2024/01/12 03:31:37;;;;;;;7.00;5.20;;;;;;;-0.50;85.37;100545.56;7213921;40;20269;31
2024/01/12 03:37:14;;;;;;;6.60;4.90;;;;;;;-0.51;84.99;100553.56;7136034;40;20285;31
2024/01/12 03:42:49;;;;;;;6.32;5.12;;;;;;;-0.53;84.93;100552.78;7138478;40;20247;31
2024/01/12 03:48:09;;;;;;;7.70;5.45;;;;;;;-0.52;84.80;100550.06;7139514;40;20419;31
2024/01/12 03:53:45;;;;;;;8.30;5.25;;;;;;;-0.54;83.94;100559.00;7186702;40;20412;31
2024/01/12 04:04:09;;;;;;;8.77;5.83;;;;;;;-0.55;83.58;100546.69;7236980;40;20272;31
2024/01/12 04:09:45;;;;;;;8.30;5.30;;;;;;;-0.62;83.55;100547.88;7202343;40;20272;31
2024/01/12 04:15:22;;;;;;;9.23;5.77;;;;;;;-0.65;83.48;100548.84;7286163;39;20347;31
2024/01/12 04:20:42;;;;;;;7.30;5.25;;;;;;;-0.70;82.77;100549.97;7217092;40;21458;31
2024/01/12 04:26:19;;;;;;;7.10;5.57;;;;;;;-0.74;82.14;100548.34;7238410;40;20364;31
2024/01/12 04:31:54;;;;;;;8.70;5.30;;;;;;;-0.83;83.31;100543.47;7198340;40;20246;31
2024/01/12 04:37:16;;;;;;;8.23;5.40;;;;;;;-0.84;82.89;100552.31;7246058;40;20258;31
2024/01/12 04:42:51;;;;;;;8.37;6.10;;;;;;;-0.87;81.84;100544.47;7250431;40;20292;31
2024/01/12 04:53:31;;;;;;;9.10;5.63;;;;;;;-0.94;82.18;100559.75;7296379;39;20259;31
2024/01/12 05:04:12;;;;;;;8.90;5.60;;;;;;;-1.00;81.69;100563.50;7290615;39;20712;31
2024/01/12 05:14:52;;;;;;;7.20;5.13;;;;;;;-0.94;81.37;100567.69;7350011;39;20770;31
2024/01/12 05:25:33;;;;;;;8.03;5.83;;;;;;;-0.98;81.79;100587.25;7294925;39;20896;31
2024/01/12 05:35:59;;;;;;;9.40;5.80;;;;;;;-0.98;82.48;100588.12;7231820;40;20763;31
2024/01/12 05:46:36;;;;;;;8.00;5.55;;;;;;;-0.89;81.80;100564.88;7256778;39;21232;31
2024/01/12 05:57:12;;;;;;;8.47;5.53;;;;;;;-0.85;82.95;100569.97;7242960;40;21697;31
2024/01/12 06:02:48;;;;;;;7.40;5.30;;;;;;;-0.84;82.79;100562.91;7257713;40;20268;31
2024/01/12 06:08:09;;;;;;;7.90;5.30;;;;;;;-0.79;82.95;100576.81;7222410;40;20360;31
2024/01/12 06:13:29;;;;;;;8.43;5.70;;;;;;;-0.79;82.94;100587.41;7238899;40;20376;31
2024/01/12 06:19:04;;;;;;;7.53;5.67;;;;;;;-0.82;83.61;100569.84;7257362;40;20350;31
2024/01/12 06:24:39;;;;;;;8.83;6.07;;;;;;;-0.82;82.54;100576.91;7245868;40;20277;31
2024/01/12 06:35:17;;;;;;;8.70;5.90;;;;;;;-0.80;83.49;100575.09;7222631;40;21367;31
2024/01/12 06:45:42;;;;;;;8.23;6.40;;;;;;;-0.73;82.63;100573.91;7285079;39;20413;31
2024/01/12 06:51:18;;;;;;;10.55;6.90;;;;;;;-0.77;83.04;100570.53;7296962;39;20260;31
2024/01/12 06:57:06;;;;;;;;;;;;;;;;;;;;;
2024/01/12 07:02:32;;;;;;;11.17;7.70;;;;;;;-0.80;83.16;100562.72;7238643;40;20238;31
2024/01/12 07:08:08;;;;;;;10.43;7.43;;;;;;;-0.80;83.63;100575.94;7187094;40;20243;31
2024/01/12 07:13:44;;;;;;;11.63;8.43;;;;;;;-0.78;83.64;100586.44;7178150;40;20257;31
2024/01/12 07:19:19;;;;;;;13.17;9.43;;;;;;;-0.84;82.51;100599.94;7248367;40;20264;31
2024/01/12 07:24:52;;;;;;;14.90;9.67;;;;;;;-0.87;83.76;100605.34;7046234;40;21200;31
2024/01/12 07:30:25;;;;;;;13.00;9.00;;;;;;;-0.94;83.39;100610.88;7253958;39;20473;31
2024/01/12 07:35:45;;;;;;;12.10;8.75;;;;;;;-0.96;83.52;100611.84;7278439;39;20257;31
2024/01/12 07:41:21;;;;;;;12.63;8.03;;;;;;;-1.00;83.21;100605.81;7240045;40;20442;31
2024/01/12 07:46:56;;;;;;;15.40;10.20;;;;;;;-0.95;82.96;100616.22;7266033;39;20245;31
2024/01/12 07:52:31;;;;;;;15.90;9.80;;;;;;;-0.91;82.87;100623.13;7278835;39;20325;31
2024/01/12 07:58:04;;;;;;;15.95;10.80;;;;;;;-0.94;82.67;100629.41;7219240;40;20239;31
2024/01/12 08:03:24;;;;;;;19.00;11.80;;;;;;;-0.91;82.90;100631.06;7188760;40;20412;31
2024/01/12 08:09:00;;;;;;;15.77;10.57;;;;;;;-0.93;82.99;100628.50;7193130;40;20234;31
2024/01/12 08:14:37;;;;;;;18.53;10.90;;;;;;;-0.94;83.54;100645.28;7164774;40;20259;31
2024/01/12 08:25:13;;;;;;;20.57;12.80;;;;;;;-0.85;83.20;100637.91;7174357;40;21352;31
2024/01/12 08:30:49;;;;;;;20.37;12.43;;;;;;;-0.77;82.72;100652.56;7230067;40;20258;31
2024/01/12 08:36:07;;;;;;;18.23;12.60;;;;;;;-0.80;84.10;100660.63;7236395;40;20363;31
2024/01/12 08:41:43;;;;;;;20.70;13.53;;;;;;;-0.84;83.78;100663.47;7272872;39;20284;31
2024/01/12 08:47:19;;;;;;;20.50;12.00;;;;;;;-0.86;84.59;100665.28;7209005;40;20262;31
2024/01/12 08:52:53;;;;;;;19.07;12.50;;;;;;;-0.79;84.40;100672.09;7179064;40;21392;31
2024/01/12 08:58:30;;;;;;;19.60;12.57;;;;;;;-0.69;84.81;100678.72;7170716;40;20248;31
2024/01/12 09:04:06;;;;;;;21.20;13.13;;;;;;;-0.67;83.38;100671.59;7194793;40;20357;31
2024/01/12 09:09:39;;;;;;;17.43;11.73;;;;;;;-0.63;84.21;100679.38;7166265;40;20350;31
2024/01/12 09:14:59;;;;;;;18.87;12.33;;;;;;;-0.63;84.39;100686.44;7177737;40;20239;31
2024/01/12 09:20:35;;;;;;;17.20;11.90;;;;;;;-0.67;84.28;100688.34;7185178;40;20278;31
2024/01/12 09:26:10;;;;;;;18.05;12.10;;;;;;;-0.77;84.53;100683.47;7228196;40;20380;31
2024/01/12 09:31:30;;;;;;;19.00;12.50;;;;;;;-0.70;83.66;100683.16;7216879;40;20261;31
2024/01/12 09:37:07;;;;;;;20.23;13.70;;;;;;;-0.79;83.56;100680.03;7240591;40;20227;31
2024/01/12 09:42:42;;;;;;;18.40;12.73;;;;;;;-0.69;83.74;100679.59;7205251;39;21430;31
2024/01/12 09:48:17;;;;;;;19.60;12.07;;;;;;;-0.66;82.35;100695.34;7199711;40;20265;31
2024/01/12 09:53:55;;;;;;;17.70;11.85;;;;;;;-0.66;82.79;100694.50;7141314;40;20249;31
2024/01/12 09:59:31;;;;;;;20.23;12.77;;;;;;;-0.69;82.21;100689.31;7111066;40;20380;31
2024/01/12 10:05:06;;;;;;;16.63;11.17;;;;;;;-0.73;82.37;100691.22;7121138;40;20243;31
2024/01/12 10:10:42;;;;;;;18.83;11.67;;;;;;;-0.78;82.20;100689.66;7159381;40;20262;31
2024/01/12 10:16:17;;;;;;;16.07;10.97;;;;;;;-0.68;81.88;100696.34;7175337;40;20247;31
2024/01/12 10:21:53;;;;;;;17.63;11.80;;;;;;;-0.71;81.66;100696.47;7253889;40;20289;31
2024/01/12 10:27:30;;;;;;;28.27;19.93;;;;;;;-0.65;81.81;100693.56;7244516;40;20429;31
2024/01/12 10:33:05;;;;;;;16.80;12.57;;;;;;;-0.77;82.75;100681.69;7196941;40;20278;31
2024/01/12 10:38:25;;;;;;;16.65;10.75;;;;;;;-0.75;83.26;100679.00;7237937;40;20257;31
2024/01/12 10:44:03;;;;;;;19.20;11.43;;;;;;;-0.77;82.44;100675.53;7249921;40;20271;31
2024/01/12 10:54:43;;;;;;;19.85;13.10;;;;;;;-0.69;81.72;100674.31;7277922;39;20738;31
2024/01/12 11:05:25;;;;;;;17.20;11.87;;;;;;;-0.66;83.09;100668.88;7296835;39;20741;31
2024/01/12 11:16:05;;;;;;;19.63;12.10;;;;;;;-0.68;82.30;100664.56;7310820;39;20753;31
2024/01/12 11:21:42;;;;;;;20.70;12.20;;;;;;;-0.80;83.91;100665.06;7219219;40;20242;31
2024/01/12 11:27:16;;;;;;;20.20;12.73;;;;;;;-0.61;82.79;100655.47;7196346;40;20254;31
2024/01/12 11:32:51;;;;;;;17.35;11.80;;;;;;;-0.48;82.29;100660.22;7178583;40;20243;31
2024/01/12 11:38:28;;;;;;;20.45;12.30;;;;;;;-0.49;82.14;100647.06;7159511;40;20423;31
2024/01/12 11:49:08;;;;;;;19.70;12.85;;;;;;;-0.47;83.57;100658.44;7182463;40;20752;31
2024/01/12 11:54:45;;;;;;;21.63;13.33;;;;;;;-0.43;82.83;100638.84;7197143;40;20258;31
2024/01/12 12:00:20;;;;;;;19.93;12.90;;;;;;;-0.30;82.66;100634.75;7222215;40;20276;31
2024/01/12 12:05:56;;;;;;;23.00;13.50;;;;;;;-0.28;82.39;100624.13;7217204;40;20261;31
2024/01/12 12:11:32;;;;;;;21.90;12.95;;;;;;;-0.24;82.29;100615.12;7249519;39;20257;31
2024/01/12 12:17:08;;;;;;;22.20;13.13;;;;;;;-0.30;82.78;100608.28;7248865;40;20477;31
2024/01/12 12:22:44;;;;;;;23.10;13.35;;;;;;;-0.26;82.92;100604.56;7237590;40;20295;31
2024/01/12 12:28:20;;;;;;;45.77;21.83;;;;;;;-0.24;82.79;100601.88;7234853;40;20266;31
2024/01/12 12:33:57;;;;;;;31.57;19.27;;;;;;;-0.20;83.47;100585.78;7221851;40;20308;31
2024/01/12 12:39:18;;;;;;;23.60;15.07;;;;;;;-0.11;83.81;100588.03;7233208;40;20237;31
2024/01/12 12:44:54;;;;;;;24.40;14.85;;;;;;;-0.13;83.25;100574.00;7279187;39;20260;31
2024/01/12 12:50:30;;;;;;;28.17;13.97;;;;;;;-0.17;84.22;100567.09;7246919;40;20261;31
2024/01/12 12:56:05;;;;;;;26.70;16.40;;;;;;;-0.19;84.21;100562.81;7257655;39;20242;31
2024/01/12 13:01:41;;;;;;;23.70;14.13;;;;;;;-0.21;83.63;100560.22;7281946;39;20248;31
2024/01/12 13:07:05;;;;;;;26.70;15.40;;;;;;;-0.11;84.07;100555.37;7199160;40;20242;31
2024/01/12 13:12:40;;;;;;;26.23;16.27;;;;;;;-0.06;83.02;100558.69;7159343;40;20278;31
2024/01/12 13:18:16;;;;;;;28.90;15.73;;;;;;;-0.09;82.98;100546.44;7147106;40;20276;31
2024/01/12 13:23:52;;;;;;;31.57;15.33;;;;;;;-0.01;83.17;100535.53;7153157;40;20431;31
2024/01/12 13:29:26;;;;;;;25.33;15.50;;;;;;;0.01;83.20;100533.66;7183495;40;20292;31
2024/01/12 13:35:02;;;;;;;26.50;15.10;;;;;;;0.02;84.09;100527.44;7157451;40;20343;31
2024/01/12 13:40:23;;;;;;;27.00;16.13;;;;;;;0.00;83.59;100526.66;7153905;40;20286;31
2024/01/12 13:45:43;;;;;;;28.40;15.00;;;;;;;0.04;83.73;100522.94;7173917;40;20273;31
2024/01/12 13:51:20;;;;;;;26.50;14.00;;;;;;;0.00;84.90;100522.19;7284747;39;20237;31
2024/01/12 13:56:55;;;;;;;23.33;13.90;;;;;;;0.04;83.80;100522.94;7237549;40;20250;31
2024/01/12 14:02:30;;;;;;;21.75;12.85;;;;;;;0.06;84.16;100520.19;7199698;40;20348;31
2024/01/12 14:08:06;;;;;;;28.43;15.93;;;;;;;-0.02;85.79;100513.47;7137950;40;20264;31
2024/01/12 14:13:40;;;;;;;29.00;16.17;;;;;;;-0.14;86.01;100523.75;7158591;40;20250;31
2024/01/12 14:19:01;;;;;;;25.83;15.97;;;;;;;-0.01;85.57;100541.69;6946393;40;21255;31
2024/01/12 14:24:37;;;;;;;27.47;16.13;;;;;;;0.00;85.04;100535.44;7144193;40;20270;31
2024/01/12 14:35:16;;;;;;;27.93;15.07;;;;;;;-0.03;85.63;100532.94;7266933;39;20710;31
2024/01/12 14:40:52;;;;;;;29.37;15.67;;;;;;;0.02;85.07;100539.81;7199594;40;20270;31
2024/01/12 14:46:27;;;;;;;32.67;16.20;;;;;;;0.10;85.08;100532.37;7220793;40;20242;31
2024/01/12 14:52:03;;;;;;;28.73;15.57;;;;;;;-0.03;86.30;100513.50;7257180;40;20346;31
2024/01/12 14:57:39;;;;;;;34.65;16.50;;;;;;;-0.05;86.10;100518.91;7227044;40;20386;31
2024/01/12 15:03:15;;;;;;;32.85;15.50;;;;;;;0.03;85.04;100525.63;7238555;40;20262;31
2024/01/12 15:08:51;;;;;;;28.33;15.43;;;;;;;0.07;84.88;100521.91;7239233;40;20348;31
2024/01/12 15:14:28;;;;;;;29.33;16.37;;;;;;;0.12;84.37;100514.63;7167044;40;20244;31
2024/01/12 15:20:04;;;;;;;30.15;17.15;;;;;;;0.20;84.79;100515.13;7156484;40;20243;31
2024/01/12 15:25:24;;;;;;;29.63;17.03;;;;;;;0.20;85.20;100518.66;7201252;40;20251;31
2024/01/12 15:31:00;;;;;;;29.90;16.90;;;;;;;0.19;84.59;100508.09;7205369;40;20274;31
2024/01/12 15:36:20;;;;;;;36.10;18.90;;;;;;;0.21;84.63;100509.78;7265054;40;20493;31
2024/01/12 15:41:55;;;;;;;37.60;18.27;;;;;;;0.23;84.81;100517.66;7269442;39;20230;31
2024/01/12 15:47:31;;;;;;;32.03;18.03;;;;;;;0.23;85.12;100510.56;7218881;40;20253;31
2024/01/12 15:52:52;;;;;;;29.23;16.45;;;;;;;0.26;84.57;100520.19;7240291;40;20252;31
2024/01/12 15:58:12;;;;;;;53.60;28.40;;;;;;;0.26;84.81;100517.53;7234747;40;20291;31
2024/01/12 16:03:48;;;;;;;32.27;18.00;;;;;;;0.18;84.55;100520.50;7240416;40;20387;31
2024/01/12 16:09:23;;;;;;;31.00;16.87;;;;;;;0.24;84.79;100512.28;7224933;40;20283;31
2024/01/12 16:14:59;;;;;;;35.93;19.23;;;;;;;0.21;84.21;100520.38;7217647;40;20262;31
2024/01/12 16:20:36;;;;;;;30.90;16.60;;;;;;;0.12;86.65;100530.53;7161207;40;20254;31
2024/01/12 16:25:57;;;;;;;31.50;18.00;;;;;;;0.13;86.45;100526.97;7206565;40;20246;31
2024/01/12 16:31:32;;;;;;;28.35;16.75;;;;;;;0.14;86.13;100544.56;7226265;40;20254;31
2024/01/12 16:37:09;;;;;;;36.13;20.33;;;;;;;0.12;85.52;100538.47;7253650;39;20260;31
2024/01/12 16:42:30;;;;;;;21.27;12.90;;;;;;;0.16;86.10;100545.37;7217286;40;20239;31
2024/01/12 16:47:50;;;;;;;22.20;11.23;;;;;;;0.17;85.41;100547.09;7238333;40;20378;31
2024/01/12 16:53:26;;;;;;;16.57;9.67;;;;;;;0.15;85.42;100548.94;7229309;40;20246;31
2024/01/12 16:58:46;;;;;;;19.97;11.57;;;;;;;0.20;85.36;100550.47;7237156;39;20253;31
2024/01/12 17:04:21;;;;;;;22.20;13.35;;;;;;;0.21;85.70;100548.69;7263419;39;20260;31
2024/01/12 17:10:10;;;;;;;25.45;14.50;;;;;;;0.21;85.18;100546.91;7221947;40;20246;31
2024/01/12 17:15:47;;;;;;;25.93;14.63;;;;;;;0.21;85.28;100553.97;7255944;40;20304;31
2024/01/12 17:21:06;;;;;;;23.15;15.20;;;;;;;0.26;85.55;100552.00;7248184;40;20323;31
2024/01/12 17:26:42;;;;;;;17.23;11.27;;;;;;;0.24;85.15;100561.78;7247706;40;20352;31
2024/01/12 17:32:17;;;;;;;22.67;12.87;;;;;;;0.24;85.19;100567.09;7215436;40;20258;31
2024/01/12 17:37:52;;;;;;;20.30;12.30;;;;;;;0.24;85.13;100557.34;7219576;40;20246;31
2024/01/12 17:43:29;;;;;;;22.07;13.37;;;;;;;0.19;85.48;100559.34;7175105;40;20422;31
2024/01/12 17:49:05;;;;;;;23.87;13.33;;;;;;;0.22;85.56;100563.66;7142215;40;21077;31
2024/01/12 17:54:24;;;;;;;21.07;11.17;;;;;;;0.25;85.58;100567.03;7164221;40;20274;31
2024/01/12 18:00:00;;;;;;;20.20;11.65;;;;;;;0.23;85.50;100560.06;7164166;40;20386;31
2024/01/12 18:05:21;;;;;;;21.45;11.90;;;;;;;0.23;85.67;100575.97;7192005;40;20441;31
2024/01/12 18:10:41;;;;;;;24.30;13.20;;;;;;;0.24;86.18;100575.03;7276525;39;21652;31
2024/01/12 18:16:18;;;;;;;25.53;14.80;;;;;;;0.21;86.12;100568.09;7274502;40;20235;31
2024/01/12 18:21:55;;;;;;;23.80;14.43;;;;;;;0.20;85.85;100576.09;7236519;40;20321;31
2024/01/12 18:27:32;;;;;;;26.30;14.67;;;;;;;0.19;85.71;100558.47;7206469;40;20304;31
2024/01/12 18:33:08;;;;;;;28.63;16.07;;;;;;;0.16;85.65;100559.50;7212968;40;20243;31
2024/01/12 18:38:29;;;;;;;29.10;16.10;;;;;;;0.23;86.27;100568.00;7256307;39;20256;31
2024/01/12 18:43:50;;;;;;;28.65;15.20;;;;;;;0.22;86.64;100564.50;7282507;39;21375;31
2024/01/12 18:49:25;;;;;;;27.05;15.75;;;;;;;0.16;86.22;100559.50;7268473;40;20369;31
2024/01/12 18:54:46;;;;;;;28.03;16.37;;;;;;;0.19;86.10;100559.34;7246808;40;20294;31
2024/01/12 19:00:21;;;;;;;25.75;14.65;;;;;;;0.22;86.38;100566.31;7197412;40;20328;31
2024/01/12 19:05:58;;;;;;;25.60;16.07;;;;;;;0.19;86.06;100562.00;7198804;40;20372;31
2024/01/12 19:11:35;;;;;;;27.63;15.57;;;;;;;0.24;86.50;100544.09;7217636;40;20273;31
2024/01/12 19:17:11;;;;;;;26.90;13.70;;;;;;;0.28;85.46;100547.47;7197912;40;20309;31
2024/01/12 19:22:47;;;;;;;22.97;13.80;;;;;;;0.25;86.36;100548.47;7181507;40;20334;31
2024/01/12 19:28:08;;;;;;;18.77;12.00;;;;;;;0.20;87.39;100557.56;7192157;40;20242;31
2024/01/12 19:33:28;;;;;;;22.65;11.65;;;;;;;0.19;87.19;100539.91;7197834;40;20245;31
2024/01/12 19:39:03;;;;;;;23.50;14.15;;;;;;;0.23;86.32;100546.81;7218890;39;20256;31
2024/01/12 19:44:24;;;;;;;20.60;11.10;;;;;;;0.30;87.12;100556.22;7247446;40;20257;31
2024/01/12 19:55:03;;;;;;;11.90;8.10;;;;;;;0.13;86.94;100561.41;7302029;39;20736;31
2024/01/12 20:05:38;;;;;;;7.77;6.00;;;;;;;0.09;87.87;100546.59;7255903;40;21255;31
2024/01/12 20:11:15;;;;;;;7.33;5.50;;;;;;;0.06;86.89;100542.25;7256177;40;20269;31
2024/01/12 20:16:36;;;;;;;6.00;4.40;;;;;;;-0.17;88.29;100553.84;7287482;39;20255;31
2024/01/12 20:22:12;;;;;;;6.07;4.40;;;;;;;-0.30;88.35;100552.66;7301380;39;20322;31
2024/01/12 20:27:47;;;;;;;11.30;7.33;;;;;;;-0.11;87.13;100552.75;7264800;39;20242;31
2024/01/12 20:33:08;;;;;;;6.80;5.30;;;;;;;-0.03;86.72;100543.53;7236506;40;20296;31
2024/01/12 20:38:43;;;;;;;8.45;5.90;;;;;;;-0.04;86.49;100562.13;7243620;40;20249;31
2024/01/12 20:44:29;;;;;;;8.00;5.40;;;;;;;-0.05;87.14;100548.06;7265265;39;20364;31
2024/01/12 20:49:49;;;;;;;8.00;5.70;;;;;;;0.13;86.66;100542.88;7230444;39;20239;31
2024/01/12 20:55:09;;;;;;;8.33;6.03;;;;;;;0.20;86.13;100526.62;7270410;39;20234;31
2024/01/12 21:00:41;;;;;;;8.50;6.30;;;;;;;0.16;85.88;100516.22;7070311;40;20245;31
2024/01/12 21:06:01;;;;;;;8.50;6.53;;;;;;;0.17;86.31;100518.81;7254725;39;20398;31
2024/01/12 21:11:33;;;;;;;10.00;6.70;;;;;;;0.14;86.48;100513.62;7218683;40;20252;31
2024/01/12 21:17:09;;;;;;;10.87;6.83;;;;;;;0.18;86.42;100511.69;7258690;40;20260;31
2024/01/12 21:22:44;;;;;;;9.20;6.40;;;;;;;0.17;86.36;100505.56;7231725;40;20264;31
2024/01/12 21:28:19;;;;;;;10.00;7.20;;;;;;;0.18;86.15;100504.59;7300224;39;20300;31
2024/01/12 21:33:55;;;;;;;7.83;5.97;;;;;;;0.13;85.59;100503.09;7159254;40;20237;31
2024/01/12 21:39:15;;;;;;;8.20;6.40;;;;;;;0.13;85.85;100500.47;7178177;40;20247;31
2024/01/12 21:44:51;;;;;;;8.07;6.10;;;;;;;0.15;85.83;100493.28;7219439;40;20322;31
2024/01/12 21:50:27;;;;;;;8.40;6.13;;;;;;;0.18;85.60;100501.09;7198598;40;20320;31
2024/01/12 21:55:43;;;;;;;12.45;8.65;;;;;;;0.22;86.30;100494.75;7233971;39;20843;31
2024/01/12 22:01:01;;;;;;;14.90;9.05;;;;;;;0.26;86.01;100502.50;7251776;40;20298;31
2024/01/12 22:06:38;;;;;;;9.70;7.43;;;;;;;0.21;85.50;100493.88;7255083;39;20320;31
2024/01/12 22:12:13;;;;;;;9.50;6.65;;;;;;;0.19;85.44;100500.16;7276305;39;20265;31
2024/01/12 22:17:48;;;;;;;9.40;7.05;;;;;;;0.18;86.12;100499.28;7250401;40;20242;31
2024/01/12 22:23:24;;;;;;;8.37;6.27;;;;;;;0.18;85.39;100482.53;7238065;40;20302;31
2024/01/12 22:28:59;;;;;;;9.20;6.37;;;;;;;0.17;85.56;100473.75;7221856;40;20238;31
2024/01/12 22:34:19;;;;;;;8.77;6.33;;;;;;;0.21;86.23;100477.09;7207227;40;20292;31
2024/01/12 22:39:56;;;;;;;8.07;5.93;;;;;;;0.21;85.58;100477.97;7216463;40;20349;31
2024/01/12 22:45:31;;;;;;;10.23;7.43;;;;;;;0.26;86.05;100475.13;7175763;40;20392;31
2024/01/12 22:51:06;;;;;;;10.95;7.85;;;;;;;0.26;85.84;100472.47;7156680;40;20247;31
2024/01/12 22:56:36;;;;;;;12.30;8.85;;;;;;;0.24;85.27;100461.06;7182194;40;20239;31
2024/01/12 23:02:11;;;;;;;16.93;10.80;;;;;;;0.24;85.54;100458.41;7198124;40;20290;31
2024/01/12 23:12:52;;;;;;;14.47;10.27;;;;;;;0.31;85.19;100451.88;7244347;40;20274;31
2024/01/12 23:18:12;;;;;;;12.90;8.40;;;;;;;0.35;85.50;100445.53;7253061;39;20237;31
2024/01/12 23:23:47;;;;;;;13.60;9.53;;;;;;;0.35;85.06;100442.88;7260821;40;21338;31
2024/01/12 23:29:23;;;;;;;13.30;8.30;;;;;;;0.34;85.27;100426.09;7225919;40;20242;31
2024/01/12 23:34:43;;;;;;;10.70;7.60;;;;;;;0.39;85.80;100428.53;7230582;40;20371;31
2024/01/12 23:40:08;;;;;;;9.17;6.83;;;;;;;0.42;85.45;100417.78;7239948;40;20273;31
2024/01/12 23:45:41;;;;;;;8.50;6.10;;;;;;;0.37;84.64;100409.16;7232354;40;20268;31
2024/01/12 23:56:18;;;;;;;9.73;6.57;;;;;;;0.35;85.36;100397.81;7242965;40;21335;31
